createdAt,value
2019-02-16T00:00:11.319Z,1016.87
2019-02-16T00:01:11.303Z,1016.89
2019-02-16T00:02:11.287Z,1016.86
2019-02-16T00:03:11.277Z,1016.95
2019-02-16T00:04:11.289Z,1016.86
2019-02-16T00:05:11.280Z,1016.87
2019-02-16T00:06:11.246Z,1016.80
2019-02-16T00:07:11.231Z,1016.87
2019-02-16T00:08:11.227Z,1016.86
2019-02-16T00:09:11.209Z,1016.85
2019-02-16T00:10:11.216Z,1016.80
2019-02-16T00:11:11.190Z,1016.80
2019-02-16T00:12:11.177Z,1016.80
2019-02-16T00:13:11.221Z,1016.81
2019-02-16T00:14:11.176Z,1016.78
2019-02-16T00:15:11.188Z,1016.78
2019-02-16T00:16:11.135Z,1016.78
2019-02-16T00:17:11.127Z,1016.76
2019-02-16T00:18:11.118Z,1016.78
2019-02-16T00:19:11.136Z,1016.73
2019-02-16T00:20:11.090Z,1016.71
2019-02-16T00:21:11.132Z,1016.76
2019-02-16T00:22:11.066Z,1016.71
2019-02-16T00:23:11.068Z,1016.69
2019-02-16T00:24:11.051Z,1016.70
2019-02-16T00:25:11.037Z,1016.77
2019-02-16T00:26:11.059Z,1016.78
2019-02-16T00:27:11.016Z,1016.68
2019-02-16T00:28:11.007Z,1016.66
2019-02-16T00:29:11.002Z,1016.64
2019-02-16T00:30:10.988Z,1016.64
2019-02-16T00:31:10.975Z,1016.72
2019-02-16T00:32:10.997Z,1016.63
2019-02-16T00:33:10.957Z,1016.68
2019-02-16T00:34:10.943Z,1016.70
2019-02-16T00:35:10.937Z,1016.67
2019-02-16T00:36:10.929Z,1016.69
2019-02-16T00:37:10.935Z,1016.67
2019-02-16T00:38:10.912Z,1016.69
2019-02-16T00:39:10.895Z,1016.66
2019-02-16T00:40:10.877Z,1016.67
2019-02-16T00:41:10.874Z,1016.58
2019-02-16T00:42:10.869Z,1016.62
2019-02-16T00:43:10.861Z,1016.68
2019-02-16T00:44:10.832Z,1016.62
2019-02-16T00:45:10.831Z,1016.65
2019-02-16T00:46:10.814Z,1016.56
2019-02-16T00:47:10.799Z,1016.55
2019-02-16T00:48:10.826Z,1016.59
2019-02-16T00:49:10.776Z,1016.52
2019-02-16T00:50:10.769Z,1016.52
2019-02-16T00:51:13.716Z,1016.48
2019-02-16T00:52:10.776Z,1016.47
2019-02-16T00:53:10.761Z,1016.51
2019-02-16T00:54:10.740Z,1016.50
2019-02-16T00:55:10.716Z,1016.47
2019-02-16T00:56:10.715Z,1016.45
2019-02-16T00:57:10.704Z,1016.43
2019-02-16T00:58:10.683Z,1016.48
2019-02-16T00:59:10.729Z,1016.51
2019-02-16T01:00:10.671Z,1016.41
2019-02-16T01:01:10.668Z,1016.45
2019-02-16T01:02:10.643Z,1016.43
2019-02-16T01:03:10.638Z,1016.42
2019-02-16T01:04:10.618Z,1016.44
2019-02-16T01:05:10.651Z,1016.45
2019-02-16T01:06:10.600Z,1016.41
2019-02-16T01:07:10.583Z,1016.39
2019-02-16T01:08:10.571Z,1016.39
2019-02-16T01:09:10.558Z,1016.37
2019-02-16T01:10:10.585Z,1016.38
2019-02-16T01:11:10.554Z,1016.33
2019-02-16T01:12:10.531Z,1016.39
2019-02-16T01:13:10.514Z,1016.33
2019-02-16T01:14:10.504Z,1016.37
2019-02-16T01:15:10.554Z,1016.29
2019-02-16T01:16:10.491Z,1016.31
2019-02-16T01:17:10.473Z,1016.28
2019-02-16T01:18:10.467Z,1016.32
2019-02-16T01:19:10.476Z,1016.29
2019-02-16T01:20:10.492Z,1016.19
2019-02-16T01:21:10.439Z,1016.21
2019-02-16T01:22:10.423Z,1016.22
2019-02-16T01:23:10.410Z,1016.25
2019-02-16T01:24:10.434Z,1016.16
2019-02-16T01:25:10.426Z,1016.21
2019-02-16T01:26:10.381Z,1016.19
2019-02-16T01:27:10.377Z,1016.18
2019-02-16T01:28:10.360Z,1016.19
2019-02-16T01:29:10.346Z,1016.19
2019-02-16T01:30:10.373Z,1016.17
2019-02-16T01:31:10.337Z,1016.11
2019-02-16T01:32:10.311Z,1016.09
2019-02-16T01:33:10.310Z,1016.02
2019-02-16T01:34:10.291Z,1016.14
2019-02-16T01:35:10.283Z,1016.06
2019-02-16T01:36:10.305Z,1016.09
2019-02-16T01:37:10.268Z,1016.08
2019-02-16T01:38:10.255Z,1016.04
2019-02-16T01:39:10.233Z,1016.06
2019-02-16T01:40:10.257Z,1016.02
2019-02-16T01:41:10.243Z,1016.01
2019-02-16T01:42:10.201Z,1015.99
2019-02-16T01:43:10.191Z,1015.96
2019-02-16T01:44:10.186Z,1015.97
2019-02-16T01:45:10.209Z,1015.95
2019-02-16T01:46:10.198Z,1015.92
2019-02-16T01:47:10.164Z,1015.89
2019-02-16T01:48:10.142Z,1015.93
2019-02-16T01:49:10.129Z,1015.87
2019-02-16T01:50:10.125Z,1015.85
2019-02-16T01:51:10.131Z,1015.86
2019-02-16T01:52:10.097Z,1015.89
2019-02-16T01:53:10.081Z,1015.86
2019-02-16T01:54:10.077Z,1015.86
2019-02-16T01:55:10.068Z,1015.84
2019-02-16T01:56:10.119Z,1015.85
2019-02-16T01:57:10.049Z,1015.90
2019-02-16T01:58:10.035Z,1015.88
2019-02-16T01:59:10.065Z,1015.85
2019-02-16T02:00:10.009Z,1015.91
2019-02-16T02:01:10.000Z,1015.87
2019-02-16T02:02:10.009Z,1015.87
2019-02-16T02:03:09.983Z,1015.91
2019-02-16T02:04:09.977Z,1015.88
2019-02-16T02:05:09.950Z,1015.86
2019-02-16T02:06:09.944Z,1015.88
2019-02-16T02:07:10.003Z,1015.86
2019-02-16T02:08:09.930Z,1015.84
2019-02-16T02:09:12.076Z,1015.91
2019-02-16T02:10:09.908Z,1015.87
2019-02-16T02:11:09.903Z,1015.86
2019-02-16T02:12:09.910Z,1015.82
2019-02-16T02:13:09.895Z,1015.83
2019-02-16T02:14:09.855Z,1015.86
2019-02-16T02:15:09.841Z,1015.85
2019-02-16T02:16:09.835Z,1015.84
2019-02-16T02:17:09.854Z,1015.86
2019-02-16T02:18:09.845Z,1015.79
2019-02-16T02:19:09.799Z,1015.75
2019-02-16T02:20:09.802Z,1015.81
2019-02-16T02:21:09.785Z,1015.85
2019-02-16T02:22:09.773Z,1015.77
2019-02-16T02:23:09.758Z,1015.76
2019-02-16T02:24:09.770Z,1015.70
2019-02-16T02:25:09.741Z,1015.72
2019-02-16T02:26:09.721Z,1015.70
2019-02-16T02:27:09.750Z,1015.68
2019-02-16T02:28:09.705Z,1015.67
2019-02-16T02:29:09.693Z,1015.65
2019-02-16T02:30:09.687Z,1015.67
2019-02-16T02:31:09.665Z,1015.70
2019-02-16T02:32:09.677Z,1015.75
2019-02-16T02:33:09.642Z,1015.69
2019-02-16T02:34:09.634Z,1015.70
2019-02-16T02:35:09.624Z,1015.72
2019-02-16T02:36:09.668Z,1015.71
2019-02-16T02:37:09.632Z,1015.66
2019-02-16T02:38:09.605Z,1015.70
2019-02-16T02:39:09.591Z,1015.72
2019-02-16T02:40:09.606Z,1015.72
2019-02-16T02:41:09.559Z,1015.72
2019-02-16T02:42:09.556Z,1015.74
2019-02-16T02:43:10.004Z,1015.78
2019-02-16T02:44:09.547Z,1015.77
2019-02-16T02:45:09.517Z,1015.71
2019-02-16T02:46:09.507Z,1015.69
2019-02-16T02:47:09.490Z,1015.77
2019-02-16T02:48:09.513Z,1015.73
2019-02-16T02:49:09.511Z,1015.76
2019-02-16T02:50:09.470Z,1015.72
2019-02-16T02:51:09.550Z,1015.68
2019-02-16T02:52:09.440Z,1015.67
2019-02-16T02:53:09.451Z,1015.65
2019-02-16T02:54:09.443Z,1015.66
2019-02-16T02:55:09.447Z,1015.60
2019-02-16T02:56:09.400Z,1015.61
2019-02-16T02:57:09.389Z,1015.66
2019-02-16T02:58:09.372Z,1015.66
2019-02-16T02:59:09.377Z,1015.61
2019-02-16T03:00:09.351Z,1015.58
2019-02-16T03:01:09.339Z,1015.51
2019-02-16T03:02:09.326Z,1015.57
2019-02-16T03:03:09.323Z,1015.50
2019-02-16T03:04:09.342Z,1015.46
2019-02-16T03:05:09.296Z,1015.51
2019-02-16T03:06:09.289Z,1015.50
2019-02-16T03:07:09.271Z,1015.42
2019-02-16T03:08:09.290Z,1015.49
2019-02-16T03:09:09.257Z,1015.50
2019-02-16T03:10:09.266Z,1015.42
2019-02-16T03:11:09.244Z,1015.50
2019-02-16T03:12:09.242Z,1015.50
2019-02-16T03:13:09.221Z,1015.41
2019-02-16T03:14:09.211Z,1015.47
2019-02-16T03:15:09.222Z,1015.41
2019-02-16T03:16:09.176Z,1015.42
2019-02-16T03:17:09.167Z,1015.37
2019-02-16T03:18:09.175Z,1015.37
2019-02-16T03:19:09.143Z,1015.40
2019-02-16T03:20:09.137Z,1015.37
2019-02-16T03:21:09.141Z,1015.34
2019-02-16T03:22:09.110Z,1015.34
2019-02-16T03:23:09.100Z,1015.35
2019-02-16T03:24:09.116Z,1015.37
2019-02-16T03:25:09.072Z,1015.35
2019-02-16T03:26:09.103Z,1015.35
2019-02-16T03:27:09.056Z,1015.39
2019-02-16T03:28:09.042Z,1015.29
2019-02-16T03:29:09.032Z,1015.31
2019-02-16T03:30:09.038Z,1015.36
2019-02-16T03:31:09.059Z,1015.38
2019-02-16T03:32:09.061Z,1015.40
2019-02-16T03:33:08.992Z,1015.35
2019-02-16T03:34:09.006Z,1015.34
2019-02-16T03:35:08.982Z,1015.33
2019-02-16T03:36:08.955Z,1015.38
2019-02-16T03:37:08.969Z,1015.39
2019-02-16T03:38:08.938Z,1015.36
2019-02-16T03:39:08.932Z,1015.35
2019-02-16T03:40:08.912Z,1015.32
2019-02-16T03:41:08.901Z,1015.32
2019-02-16T03:42:08.920Z,1015.27
2019-02-16T03:43:08.899Z,1015.31
2019-02-16T03:44:08.868Z,1015.30
2019-02-16T03:45:08.856Z,1015.32
2019-02-16T03:46:08.848Z,1015.28
2019-02-16T03:47:08.853Z,1015.27
2019-02-16T03:48:08.843Z,1015.27
2019-02-16T03:49:08.829Z,1015.25
2019-02-16T03:50:08.815Z,1015.21
2019-02-16T03:51:08.818Z,1015.27
2019-02-16T03:52:13.976Z,1015.26
2019-02-16T03:53:09.801Z,1015.31
2019-02-16T03:54:08.768Z,1015.29
2019-02-16T03:55:08.758Z,1015.24
2019-02-16T03:56:08.741Z,1015.20
2019-02-16T03:57:08.726Z,1015.22
2019-02-16T03:58:08.717Z,1015.23
2019-02-16T03:59:08.836Z,1015.21
2019-02-16T04:00:08.698Z,1015.20
2019-02-16T04:01:08.692Z,1015.26
2019-02-16T04:02:08.702Z,1015.18
2019-02-16T04:03:08.662Z,1015.23
2019-02-16T04:04:08.647Z,1015.19
2019-02-16T04:05:08.638Z,1015.17
2019-02-16T04:06:08.660Z,1015.18
2019-02-16T04:07:08.642Z,1015.15
2019-02-16T04:08:08.607Z,1015.09
2019-02-16T04:09:08.641Z,1015.15
2019-02-16T04:10:08.586Z,1015.13
2019-02-16T04:11:08.573Z,1015.13
2019-02-16T04:12:08.563Z,1015.07
2019-02-16T04:13:08.559Z,1015.11
2019-02-16T04:14:08.580Z,1015.17
2019-02-16T04:15:08.529Z,1015.08
2019-02-16T04:16:08.529Z,1015.08
2019-02-16T04:17:08.512Z,1015.07
2019-02-16T04:18:08.503Z,1015.04
2019-02-16T04:19:08.503Z,1015.07
2019-02-16T04:20:08.490Z,1015.02
2019-02-16T04:21:08.460Z,1015.04
2019-02-16T04:22:08.448Z,1015.00
2019-02-16T04:23:08.440Z,1015.02
2019-02-16T04:24:08.437Z,1014.98
2019-02-16T04:25:08.469Z,1014.93
2019-02-16T04:26:08.408Z,1014.94
2019-02-16T04:27:08.440Z,1014.94
2019-02-16T04:28:08.393Z,1014.92
2019-02-16T04:29:08.383Z,1014.88
2019-02-16T04:30:08.364Z,1014.97
2019-02-16T04:31:08.355Z,1014.95
2019-02-16T04:32:08.378Z,1014.97
2019-02-16T04:33:08.330Z,1014.89
2019-02-16T04:34:08.323Z,1014.93
2019-02-16T04:35:08.352Z,1014.96
2019-02-16T04:36:08.301Z,1014.90
2019-02-16T04:37:08.287Z,1014.86
2019-02-16T04:38:08.305Z,1014.86
2019-02-16T04:39:08.261Z,1014.86
2019-02-16T04:40:08.256Z,1014.81
2019-02-16T04:41:08.244Z,1014.85
2019-02-16T04:42:08.234Z,1014.83
2019-02-16T04:43:08.256Z,1014.78
2019-02-16T04:44:08.207Z,1014.84
2019-02-16T04:45:08.207Z,1014.80
2019-02-16T04:46:08.185Z,1014.79
2019-02-16T04:47:08.179Z,1014.81
2019-02-16T04:48:08.164Z,1014.78
2019-02-16T04:49:08.193Z,1014.82
2019-02-16T04:50:08.148Z,1014.83
2019-02-16T04:51:08.140Z,1014.82
2019-02-16T04:52:08.120Z,1014.84
2019-02-16T04:53:08.111Z,1014.78
2019-02-16T04:54:08.133Z,1014.83
2019-02-16T04:55:08.091Z,1014.74
2019-02-16T04:56:08.082Z,1014.82
2019-02-16T04:57:08.075Z,1014.80
2019-02-16T04:58:08.057Z,1014.78
2019-02-16T04:59:08.047Z,1014.87
2019-02-16T05:00:08.054Z,1014.84
2019-02-16T05:01:08.034Z,1014.87
2019-02-16T05:02:08.014Z,1014.85
2019-02-16T05:03:08.002Z,1014.84
2019-02-16T05:04:08.002Z,1014.86
2019-02-16T05:05:08.017Z,1014.86
2019-02-16T05:06:07.967Z,1014.86
2019-02-16T05:07:07.957Z,1014.83
2019-02-16T05:08:07.968Z,1014.89
2019-02-16T05:09:07.934Z,1014.82
2019-02-16T05:10:07.932Z,1014.88
2019-02-16T05:11:07.949Z,1014.85
2019-02-16T05:12:07.905Z,1014.84
2019-02-16T05:13:07.897Z,1014.85
2019-02-16T05:14:07.884Z,1014.90
2019-02-16T05:15:07.874Z,1014.87
2019-02-16T05:16:07.876Z,1014.86
2019-02-16T05:17:07.854Z,1014.79
2019-02-16T05:18:07.841Z,1014.87
2019-02-16T05:19:07.833Z,1014.81
2019-02-16T05:20:07.823Z,1014.84
2019-02-16T05:21:07.839Z,1014.81
2019-02-16T05:22:07.796Z,1014.76
2019-02-16T05:23:07.783Z,1014.79
2019-02-16T05:24:07.784Z,1014.82
2019-02-16T05:25:07.761Z,1014.81
2019-02-16T05:26:07.777Z,1014.76
2019-02-16T05:27:07.740Z,1014.75
2019-02-16T05:28:07.735Z,1014.76
2019-02-16T05:29:07.724Z,1014.84
2019-02-16T05:30:07.706Z,1014.76
2019-02-16T05:31:07.713Z,1014.77
2019-02-16T05:32:07.706Z,1014.83
2019-02-16T05:33:07.669Z,1014.77
2019-02-16T05:34:07.677Z,1014.76
2019-02-16T05:35:07.665Z,1014.80
2019-02-16T05:36:07.639Z,1014.81
2019-02-16T05:37:07.660Z,1014.83
2019-02-16T05:38:07.674Z,1014.73
2019-02-16T05:39:07.615Z,1014.74
2019-02-16T05:40:07.675Z,1014.79
2019-02-16T05:41:07.585Z,1014.81
2019-02-16T05:42:07.572Z,1014.78
2019-02-16T05:43:07.596Z,1014.75
2019-02-16T05:44:07.567Z,1014.79
2019-02-16T05:45:07.536Z,1014.78
2019-02-16T05:46:07.528Z,1014.76
2019-02-16T05:47:07.532Z,1014.77
2019-02-16T05:48:07.534Z,1014.80
2019-02-16T05:49:07.512Z,1014.76
2019-02-16T05:50:07.491Z,1014.79
2019-02-16T05:51:07.478Z,1014.72
2019-02-16T05:52:07.475Z,1014.78
2019-02-16T05:53:07.479Z,1014.76
2019-02-16T05:54:07.449Z,1014.71
2019-02-16T05:55:07.425Z,1014.80
2019-02-16T05:56:07.425Z,1014.71
2019-02-16T05:57:07.420Z,1014.77
2019-02-16T05:58:07.427Z,1014.74
2019-02-16T05:59:08.178Z,1014.70
2019-02-16T06:00:07.375Z,1014.74
2019-02-16T06:01:07.362Z,1014.75
2019-02-16T06:02:07.353Z,1014.75
2019-02-16T06:03:07.372Z,1014.73
2019-02-16T06:04:07.416Z,1014.76
2019-02-16T06:05:07.317Z,1014.72
2019-02-16T06:06:07.308Z,1014.75
2019-02-16T06:07:07.306Z,1014.73
2019-02-16T06:08:07.284Z,1014.71
2019-02-16T06:09:07.303Z,1014.72
2019-02-16T06:10:07.266Z,1014.78
2019-02-16T06:11:07.260Z,1014.73
2019-02-16T06:12:07.241Z,1014.76
2019-02-16T06:13:07.230Z,1014.83
2019-02-16T06:14:07.215Z,1014.75
2019-02-16T06:15:07.230Z,1014.75
2019-02-16T06:16:07.201Z,1014.78
2019-02-16T06:17:07.186Z,1014.75
2019-02-16T06:18:07.179Z,1014.69
2019-02-16T06:19:07.205Z,1014.74
2019-02-16T06:20:07.205Z,1014.76
2019-02-16T06:21:07.145Z,1014.83
2019-02-16T06:22:07.132Z,1014.76
2019-02-16T06:23:07.116Z,1014.72
2019-02-16T06:24:07.137Z,1014.79
2019-02-16T06:25:07.119Z,1014.74
2019-02-16T06:26:07.110Z,1014.72
2019-02-16T06:27:07.086Z,1014.73
2019-02-16T06:28:07.068Z,1014.76
2019-02-16T06:29:07.070Z,1014.72
2019-02-16T06:30:07.053Z,1014.78
2019-02-16T06:31:07.056Z,1014.71
2019-02-16T06:32:07.019Z,1014.69
2019-02-16T06:33:07.005Z,1014.74
2019-02-16T06:34:07.049Z,1014.71
2019-02-16T06:35:06.988Z,1014.79
2019-02-16T06:36:06.974Z,1014.69
2019-02-16T06:37:06.983Z,1014.69
2019-02-16T06:38:06.953Z,1014.75
2019-02-16T06:39:06.952Z,1014.67
2019-02-16T06:40:06.929Z,1014.76
2019-02-16T06:41:06.947Z,1014.76
2019-02-16T06:42:06.938Z,1014.70
2019-02-16T06:43:06.895Z,1014.75
2019-02-16T06:44:06.883Z,1014.74
2019-02-16T06:45:06.875Z,1014.74
2019-02-16T06:46:06.870Z,1014.76
2019-02-16T06:47:06.852Z,1014.76
2019-02-16T06:48:06.865Z,1014.75
2019-02-16T06:49:06.833Z,1014.78
2019-02-16T06:50:06.853Z,1014.76
2019-02-16T06:51:06.807Z,1014.79
2019-02-16T06:52:06.802Z,1014.84
2019-02-16T06:53:12.937Z,1014.83
2019-02-16T06:54:07.774Z,1014.85
2019-02-16T06:55:06.764Z,1014.80
2019-02-16T06:56:06.758Z,1014.82
2019-02-16T06:57:06.742Z,1014.82
2019-02-16T06:58:06.754Z,1014.82
2019-02-16T06:59:06.751Z,1014.84
2019-02-16T07:00:06.707Z,1014.81
2019-02-16T07:01:06.710Z,1014.82
2019-02-16T07:02:06.719Z,1014.87
2019-02-16T07:03:06.678Z,1014.88
2019-02-16T07:04:06.692Z,1014.85
2019-02-16T07:05:06.658Z,1014.83
2019-02-16T07:06:06.684Z,1014.88
2019-02-16T07:07:06.631Z,1014.84
2019-02-16T07:08:06.624Z,1014.92
2019-02-16T07:09:06.617Z,1014.92
2019-02-16T07:10:06.621Z,1014.93
2019-02-16T07:11:06.664Z,1014.93
2019-02-16T07:12:06.580Z,1014.95
2019-02-16T07:13:06.573Z,1014.92
2019-02-16T07:14:06.619Z,1014.98
2019-02-16T07:15:06.568Z,1014.95
2019-02-16T07:16:06.540Z,1014.94
2019-02-16T07:17:06.528Z,1014.98
2019-02-16T07:18:06.524Z,1015.03
2019-02-16T07:19:06.515Z,1014.97
2019-02-16T07:20:07.897Z,1014.93
2019-02-16T07:21:06.495Z,1015.04
2019-02-16T07:22:06.469Z,1014.97
2019-02-16T07:23:06.458Z,1015.00
2019-02-16T07:24:06.451Z,1014.98
2019-02-16T07:25:06.450Z,1014.97
2019-02-16T07:26:06.437Z,1015.02
2019-02-16T07:27:06.412Z,1015.06
2019-02-16T07:28:06.406Z,1014.99
2019-02-16T07:29:06.388Z,1015.06
2019-02-16T07:30:06.402Z,1015.05
2019-02-16T07:31:06.399Z,1015.02
2019-02-16T07:32:06.361Z,1015.10
2019-02-16T07:33:06.356Z,1014.99
2019-02-16T07:34:06.336Z,1015.09
2019-02-16T07:35:06.328Z,1015.06
2019-02-16T07:36:06.315Z,1015.09
2019-02-16T07:37:06.319Z,1015.07
2019-02-16T07:38:06.299Z,1015.03
2019-02-16T07:39:06.314Z,1015.01
2019-02-16T07:40:06.275Z,1015.12
2019-02-16T07:41:06.254Z,1015.07
2019-02-16T07:42:06.248Z,1015.04
2019-02-16T07:43:06.238Z,1015.01
2019-02-16T07:44:06.257Z,1015.04
2019-02-16T07:45:06.214Z,1015.09
2019-02-16T07:46:06.203Z,1015.02
2019-02-16T07:47:06.198Z,1015.05
2019-02-16T07:48:06.184Z,1015.03
2019-02-16T07:49:06.166Z,1015.09
2019-02-16T07:50:06.180Z,1015.05
2019-02-16T07:51:06.150Z,1015.09
2019-02-16T07:52:06.132Z,1015.00
2019-02-16T07:53:06.125Z,1015.05
2019-02-16T07:54:06.184Z,1015.04
2019-02-16T07:55:06.099Z,1015.08
2019-02-16T07:56:06.088Z,1015.05
2019-02-16T07:57:06.077Z,1015.10
2019-02-16T07:58:06.068Z,1015.09
2019-02-16T07:59:06.096Z,1015.00
2019-02-16T08:00:06.054Z,1015.00
2019-02-16T08:01:06.070Z,1015.00
2019-02-16T08:02:06.031Z,1014.97
2019-02-16T08:03:06.024Z,1015.06
2019-02-16T08:04:06.017Z,1014.99
2019-02-16T08:05:05.993Z,1014.97
2019-02-16T08:06:06.026Z,1015.03
2019-02-16T08:07:06.035Z,1014.96
2019-02-16T08:08:05.959Z,1015.00
2019-02-16T08:09:05.953Z,1014.96
2019-02-16T08:10:05.973Z,1014.93
2019-02-16T08:11:05.929Z,1015.01
2019-02-16T08:12:05.923Z,1014.92
2019-02-16T08:13:05.921Z,1014.88
2019-02-16T08:14:05.895Z,1014.93
2019-02-16T08:15:05.912Z,1014.92
2019-02-16T08:16:05.882Z,1014.87
2019-02-16T08:17:05.874Z,1014.85
2019-02-16T08:18:05.855Z,1014.88
2019-02-16T08:19:05.843Z,1014.87
2019-02-16T08:20:05.829Z,1014.90
2019-02-16T08:21:05.870Z,1014.84
2019-02-16T08:22:05.813Z,1014.87
2019-02-16T08:23:05.802Z,1014.83
2019-02-16T08:24:05.785Z,1014.83
2019-02-16T08:25:05.807Z,1014.87
2019-02-16T08:26:05.770Z,1014.86
2019-02-16T08:27:05.751Z,1014.80
2019-02-16T08:28:05.742Z,1014.82
2019-02-16T08:29:05.739Z,1014.87
2019-02-16T08:30:05.756Z,1014.84
2019-02-16T08:31:05.721Z,1014.83
2019-02-16T08:32:05.701Z,1014.79
2019-02-16T08:33:05.690Z,1014.82
2019-02-16T08:34:05.678Z,1014.81
2019-02-16T08:35:05.722Z,1014.83
2019-02-16T08:36:05.659Z,1014.86
2019-02-16T08:37:05.665Z,1014.81
2019-02-16T08:38:05.640Z,1014.79
2019-02-16T08:39:05.623Z,1014.83
2019-02-16T08:40:05.661Z,1014.86
2019-02-16T08:41:05.612Z,1014.84
2019-02-16T08:42:05.589Z,1014.89
2019-02-16T08:43:05.587Z,1014.81
2019-02-16T08:44:05.573Z,1014.86
2019-02-16T08:45:05.580Z,1014.83
2019-02-16T08:46:05.612Z,1014.76
2019-02-16T08:47:05.563Z,1014.82
2019-02-16T08:48:05.527Z,1014.72
2019-02-16T08:49:05.514Z,1014.76
2019-02-16T08:50:05.504Z,1014.72
2019-02-16T08:51:05.529Z,1014.68
2019-02-16T08:52:05.514Z,1014.74
2019-02-16T08:53:05.489Z,1014.66
2019-02-16T08:54:05.462Z,1014.65
2019-02-16T08:55:05.452Z,1014.68
2019-02-16T08:56:05.444Z,1014.62
2019-02-16T08:57:05.433Z,1014.62
2019-02-16T08:58:05.444Z,1014.55
2019-02-16T08:59:05.410Z,1014.55
2019-02-16T09:00:05.403Z,1014.59
2019-02-16T09:01:05.386Z,1014.50
2019-02-16T09:02:05.374Z,1014.55
2019-02-16T09:03:05.432Z,1014.48
2019-02-16T09:04:05.380Z,1014.49
2019-02-16T09:05:05.354Z,1014.47
2019-02-16T09:06:05.333Z,1014.52
2019-02-16T09:07:05.326Z,1014.49
2019-02-16T09:08:05.312Z,1014.51
2019-02-16T09:09:05.351Z,1014.45
2019-02-16T09:10:05.291Z,1014.49
2019-02-16T09:11:05.314Z,1014.49
2019-02-16T09:12:06.031Z,1014.43
2019-02-16T09:13:05.263Z,1014.43
2019-02-16T09:14:05.246Z,1014.42
2019-02-16T09:15:05.233Z,1014.45
2019-02-16T09:16:05.222Z,1014.44
2019-02-16T09:17:05.240Z,1014.44
2019-02-16T09:18:05.203Z,1014.48
2019-02-16T09:19:05.194Z,1014.53
2019-02-16T09:20:05.177Z,1014.47
2019-02-16T09:21:14.213Z,1014.44
2019-02-16T09:22:06.199Z,1014.39
2019-02-16T09:23:05.157Z,1014.41
2019-02-16T09:24:05.150Z,1014.42
2019-02-16T09:25:05.742Z,1014.38
2019-02-16T09:26:05.113Z,1014.38
2019-02-16T09:27:05.117Z,1014.36
2019-02-16T09:28:05.124Z,1014.39
2019-02-16T09:29:05.077Z,1014.37
2019-02-16T09:30:05.072Z,1014.34
2019-02-16T09:31:05.059Z,1014.42
2019-02-16T09:32:05.047Z,1014.40
2019-02-16T09:33:05.067Z,1014.37
2019-02-16T09:34:05.055Z,1014.38
2019-02-16T09:35:05.018Z,1014.36
2019-02-16T09:36:04.999Z,1014.41
2019-02-16T09:37:05.010Z,1014.31
2019-02-16T09:38:04.978Z,1014.33
2019-02-16T09:39:05.001Z,1014.33
2019-02-16T09:40:04.955Z,1014.35
2019-02-16T09:41:04.944Z,1014.29
2019-02-16T09:42:04.969Z,1014.32
2019-02-16T09:43:04.929Z,1014.31
2019-02-16T09:44:04.917Z,1014.27
2019-02-16T09:45:04.935Z,1014.31
2019-02-16T09:46:04.888Z,1014.23
2019-02-16T09:47:04.880Z,1014.24
2019-02-16T09:48:04.886Z,1014.21
2019-02-16T09:49:04.857Z,1014.22
2019-02-16T09:50:04.863Z,1014.19
2019-02-16T09:51:04.868Z,1014.26
2019-02-16T09:52:04.836Z,1014.28
2019-02-16T09:53:04.827Z,1014.19
2019-02-16T09:54:08.439Z,1014.19
2019-02-16T09:55:04.793Z,1014.14
2019-02-16T09:56:04.827Z,1014.17
2019-02-16T09:57:04.767Z,1014.16
2019-02-16T09:58:04.756Z,1014.15
2019-02-16T09:59:04.753Z,1014.15
2019-02-16T10:00:04.743Z,1014.14
2019-02-16T10:01:04.722Z,1014.10
2019-02-16T10:02:04.754Z,1014.09
2019-02-16T10:03:04.705Z,1014.13
2019-02-16T10:04:04.691Z,1014.15
2019-02-16T10:05:04.687Z,1014.14
2019-02-16T10:06:04.676Z,1014.17
2019-02-16T10:07:04.724Z,1014.18
2019-02-16T10:08:04.653Z,1014.14
2019-02-16T10:09:04.645Z,1014.16
2019-02-16T10:10:04.625Z,1014.09
2019-02-16T10:11:04.640Z,1014.14
2019-02-16T10:12:04.609Z,1014.15
2019-02-16T10:13:04.632Z,1014.13
2019-02-16T10:14:04.596Z,1014.13
2019-02-16T10:15:04.572Z,1014.11
2019-02-16T10:16:04.596Z,1014.21
2019-02-16T10:17:04.573Z,1014.14
2019-02-16T10:18:04.564Z,1014.16
2019-02-16T10:19:04.531Z,1014.14
2019-02-16T10:20:04.523Z,1014.08
2019-02-16T10:21:04.507Z,1014.12
2019-02-16T10:22:04.529Z,1014.19
2019-02-16T10:23:04.523Z,1014.12
2019-02-16T10:24:04.521Z,1014.08
2019-02-16T10:25:04.490Z,1014.09
2019-02-16T10:26:04.464Z,1014.09
2019-02-16T10:27:04.478Z,1014.11
2019-02-16T10:28:04.432Z,1014.09
2019-02-16T10:29:04.438Z,1014.14
2019-02-16T10:30:04.430Z,1014.18
2019-02-16T10:31:04.399Z,1014.16
2019-02-16T10:32:04.387Z,1014.17
2019-02-16T10:33:04.410Z,1014.08
2019-02-16T10:34:04.369Z,1014.15
2019-02-16T10:35:04.365Z,1014.10
2019-02-16T10:36:04.343Z,1014.10
2019-02-16T10:37:04.332Z,1014.11
2019-02-16T10:38:04.335Z,1014.12
2019-02-16T10:39:04.330Z,1014.12
2019-02-16T10:40:04.301Z,1014.07
2019-02-16T10:41:04.306Z,1014.18
2019-02-16T10:42:04.289Z,1014.12
2019-02-16T10:43:04.292Z,1014.10
2019-02-16T10:44:04.288Z,1014.08
2019-02-16T10:45:04.247Z,1014.11
2019-02-16T10:46:04.248Z,1014.04
2019-02-16T10:47:04.230Z,1014.02
2019-02-16T10:48:04.227Z,1013.96
2019-02-16T10:49:04.272Z,1013.94
2019-02-16T10:50:04.225Z,1014.02
2019-02-16T10:51:04.187Z,1013.98
2019-02-16T10:52:04.174Z,1013.91
2019-02-16T10:53:04.157Z,1013.92
2019-02-16T10:54:04.155Z,1013.92
2019-02-16T10:55:04.146Z,1013.93
2019-02-16T10:56:04.144Z,1013.88
2019-02-16T10:57:04.115Z,1013.87
2019-02-16T10:58:04.122Z,1013.88
2019-02-16T10:59:04.115Z,1013.91
2019-02-16T11:00:04.147Z,1013.88
2019-02-16T11:01:04.075Z,1013.80
2019-02-16T11:02:04.088Z,1013.81
2019-02-16T11:03:04.057Z,1013.78
2019-02-16T11:04:04.052Z,1013.75
2019-02-16T11:05:04.037Z,1013.72
2019-02-16T11:06:04.033Z,1013.79
2019-02-16T11:07:04.021Z,1013.72
2019-02-16T11:08:04.002Z,1013.76
2019-02-16T11:09:03.985Z,1013.71
2019-02-16T11:10:04.034Z,1013.74
2019-02-16T11:11:03.966Z,1013.71
2019-02-16T11:12:03.950Z,1013.74
2019-02-16T11:13:04.026Z,1013.71
2019-02-16T11:14:03.961Z,1013.75
2019-02-16T11:15:03.918Z,1013.73
2019-02-16T11:16:03.926Z,1013.78
2019-02-16T11:17:03.903Z,1013.77
2019-02-16T11:18:03.888Z,1013.80
2019-02-16T11:19:03.896Z,1013.78
2019-02-16T11:20:03.866Z,1013.78
2019-02-16T11:21:03.888Z,1013.77
2019-02-16T11:22:04.436Z,1013.70
2019-02-16T11:23:03.832Z,1013.66
2019-02-16T11:24:03.821Z,1013.65
2019-02-16T11:25:03.807Z,1013.71
2019-02-16T11:26:03.834Z,1013.70
2019-02-16T11:27:03.788Z,1013.62
2019-02-16T11:28:03.793Z,1013.60
2019-02-16T11:29:03.788Z,1013.62
2019-02-16T11:30:03.775Z,1013.57
2019-02-16T11:31:03.749Z,1013.65
2019-02-16T11:32:03.760Z,1013.62
2019-02-16T11:33:03.741Z,1013.59
2019-02-16T11:34:03.716Z,1013.62
2019-02-16T11:35:03.735Z,1013.62
2019-02-16T11:36:03.724Z,1013.59
2019-02-16T11:37:03.684Z,1013.61
2019-02-16T11:38:03.686Z,1013.58
2019-02-16T11:39:03.679Z,1013.59
2019-02-16T11:40:03.682Z,1013.47
2019-02-16T11:41:03.686Z,1013.42
2019-02-16T11:42:03.628Z,1013.40
2019-02-16T11:43:03.625Z,1013.45
2019-02-16T11:44:03.617Z,1013.40
2019-02-16T11:45:03.594Z,1013.38
2019-02-16T11:46:03.617Z,1013.37
2019-02-16T11:47:03.573Z,1013.42
2019-02-16T11:48:03.568Z,1013.36
2019-02-16T11:49:03.548Z,1013.36
2019-02-16T11:50:03.551Z,1013.35
2019-02-16T11:51:03.560Z,1013.37
2019-02-16T11:52:03.535Z,1013.36
2019-02-16T11:53:03.499Z,1013.41
2019-02-16T11:54:03.515Z,1013.37
2019-02-16T11:55:03.483Z,1013.41
2019-02-16T11:56:03.473Z,1013.36
2019-02-16T11:57:03.491Z,1013.36
2019-02-16T11:58:03.462Z,1013.46
2019-02-16T11:59:03.469Z,1013.38
2019-02-16T12:00:03.435Z,1013.35
2019-02-16T12:01:03.412Z,1013.44
2019-02-16T12:02:03.426Z,1013.35
2019-02-16T12:03:03.404Z,1013.38
2019-02-16T12:04:03.380Z,1013.34
2019-02-16T12:05:03.388Z,1013.33